Loves Park, IL

2:37 PM CDT on August 27, 2015 (GMT -0500)
Brookview School Area | | Change Station
CLOSE
Current Station
Personal Weather Station
Location: Rockford, IL
Elevation: 879 ft
Nearby Weather Stations

Elev 879 ft 42.29 °N, 89.01 °W | Updated 7 minutes ago

Mostly Cloudy
Mostly Cloudy
74.0 °F
Feels Like 77 °F
N
0.0
Wind Variable Wind from North
Gusts 3.0 mph

Today
High -- | Low -- °F
--% Chance of Precip.
Yesterday
High -- | Low -- °F
Precip. -- in
6:15 AM 7:38 PM
Waxing Gibbous, 94% visible
Pressure 30.18 in
Visibility 10.0 miles
Clouds Mostly Cloudy 3600 ft
Mostly Cloudy 25000 ft
Heat Index 77 °F
Dew Point 58 °F
Humidity 58%
Rainfall 0.00 in
Snow Depth Not available.
UV 5 out of 12
Pollen 10.10 out of 12
Air Quality Not available.
Flu Activity Not available.
METAR KRFD 271854Z 23007KT 10SM BKN036 BKN250 23/13 A3018 RMK AO2 SLP219 T02330133
Pressure 30.18 in
Visibility 10.0 miles
Clouds Mostly Cloudy 3600 ft
Mostly Cloudy 25000 ft
Heat Index 77 °F
Dew Point 58 °F
Humidity 58%
Rainfall 0.00 in
Snow Depth Not available.
UV 5 out of 12
Pollen 10.10 out of 12
Air Quality Not available.
Flu Activity Not available.
METAR KRFD 271854Z 23007KT 10SM BKN036 BKN250 23/13 A3018 RMK AO2 SLP219 T02330133

10-Day Weather Forecast

×

Almanac

Astronomy

Aug. 27, 2015 Rise Set
Actual Time
Civil Twilight
Nautical Twilight
Astronomical Twilight
Moon
Length of Visible Light
Length of Day
Tomorrow will be .
, % of the Moon is Illuminated

Today's Extremes

State Highs State Lows

Community

WunderPhotos

Upload Photos

1,850,195 photos uploaded!

WunderBlogs® & News

Nearby

Air Quality

  Air Quality AQ Index Pollutant
Not available.

Snow Depth

Station Depth Elevation

Earthquake Activity

City Distance Mag. Time & Date
Minimum magnitude displayed is 2.5.

Coastal Water Temperatures

Place Temperature

Stations

Nearby Weather Stations

Station Location Temp. Windchill Dew Point Humidity Wind Precip. Elev Updated Type